sensor_id;sensor_type;location;lat;lon;timestamp;P1;durP1;ratioP1;P2;durP2;ratioP2
5867;SDS011;2960;49.142;7.768;2023-05-07T00:01:51;10.60;;;5.00;;
5867;SDS011;2960;49.142;7.768;2023-05-07T00:04:18;11.83;;;5.20;;
5867;SDS011;2960;49.142;7.768;2023-05-07T00:06:45;11.07;;;5.33;;
5867;SDS011;2960;49.142;7.768;2023-05-07T00:09:13;10.60;;;4.87;;
5867;SDS011;2960;49.142;7.768;2023-05-07T00:11:41;10.53;;;5.10;;
5867;SDS011;2960;49.142;7.768;2023-05-07T00:14:08;10.77;;;5.00;;
5867;SDS011;2960;49.142;7.768;2023-05-07T00:16:36;10.67;;;5.30;;
5867;SDS011;2960;49.142;7.768;2023-05-07T00:19:07;10.90;;;4.90;;
5867;SDS011;2960;49.142;7.768;2023-05-07T00:21:34;10.67;;;5.10;;
5867;SDS011;2960;49.142;7.768;2023-05-07T00:24:01;10.80;;;5.00;;
5867;SDS011;2960;49.142;7.768;2023-05-07T00:26:29;10.73;;;4.97;;
5867;SDS011;2960;49.142;7.768;2023-05-07T00:28:56;10.60;;;5.00;;
5867;SDS011;2960;49.142;7.768;2023-05-07T00:31:23;11.20;;;5.27;;
5867;SDS011;2960;49.142;7.768;2023-05-07T00:33:50;12.10;;;5.13;;
5867;SDS011;2960;49.142;7.768;2023-05-07T00:36:19;10.50;;;5.10;;
5867;SDS011;2960;49.142;7.768;2023-05-07T00:38:46;10.90;;;5.30;;
5867;SDS011;2960;49.142;7.768;2023-05-07T00:41:13;10.70;;;5.10;;
5867;SDS011;2960;49.142;7.768;2023-05-07T00:43:40;11.00;;;5.30;;
5867;SDS011;2960;49.142;7.768;2023-05-07T00:46:07;10.67;;;5.00;;
5867;SDS011;2960;49.142;7.768;2023-05-07T00:48:35;11.00;;;5.30;;
5867;SDS011;2960;49.142;7.768;2023-05-07T00:51:02;10.70;;;5.13;;
5867;SDS011;2960;49.142;7.768;2023-05-07T00:53:31;10.90;;;5.20;;
5867;SDS011;2960;49.142;7.768;2023-05-07T00:55:58;10.87;;;5.27;;
5867;SDS011;2960;49.142;7.768;2023-05-07T00:58:25;11.07;;;5.27;;
5867;SDS011;2960;49.142;7.768;2023-05-07T01:00:53;10.90;;;5.50;;
5867;SDS011;2960;49.142;7.768;2023-05-07T01:03:20;10.87;;;5.10;;
5867;SDS011;2960;49.142;7.768;2023-05-07T01:05:47;10.73;;;5.00;;
5867;SDS011;2960;49.142;7.768;2023-05-07T01:08:16;10.60;;;4.90;;
5867;SDS011;2960;49.142;7.768;2023-05-07T01:10:48;10.87;;;5.17;;
5867;SDS011;2960;49.142;7.768;2023-05-07T01:13:15;10.60;;;5.00;;
5867;SDS011;2960;49.142;7.768;2023-05-07T01:15:45;10.70;;;4.90;;
5867;SDS011;2960;49.142;7.768;2023-05-07T01:18:12;12.13;;;5.20;;
5867;SDS011;2960;49.142;7.768;2023-05-07T01:20:40;11.10;;;5.13;;
5867;SDS011;2960;49.142;7.768;2023-05-07T01:23:09;10.63;;;4.90;;
5867;SDS011;2960;49.142;7.768;2023-05-07T01:25:38;10.60;;;5.07;;
5867;SDS011;2960;49.142;7.768;2023-05-07T01:28:05;10.60;;;4.90;;
5867;SDS011;2960;49.142;7.768;2023-05-07T01:30:35;10.60;;;4.67;;
5867;SDS011;2960;49.142;7.768;2023-05-07T01:33:04;10.40;;;4.77;;
5867;SDS011;2960;49.142;7.768;2023-05-07T01:35:36;11.13;;;4.80;;
5867;SDS011;2960;49.142;7.768;2023-05-07T01:38:07;10.80;;;5.10;;
5867;SDS011;2960;49.142;7.768;2023-05-07T01:40:36;10.40;;;4.60;;
5867;SDS011;2960;49.142;7.768;2023-05-07T01:43:03;11.57;;;5.30;;
5867;SDS011;2960;49.142;7.768;2023-05-07T01:45:34;10.80;;;5.33;;
5867;SDS011;2960;49.142;7.768;2023-05-07T01:48:01;10.60;;;4.80;;
5867;SDS011;2960;49.142;7.768;2023-05-07T01:50:29;10.60;;;4.90;;
5867;SDS011;2960;49.142;7.768;2023-05-07T01:52:58;10.90;;;5.10;;
5867;SDS011;2960;49.142;7.768;2023-05-07T01:55:26;10.47;;;4.93;;
5867;SDS011;2960;49.142;7.768;2023-05-07T01:57:53;11.30;;;5.40;;
5867;SDS011;2960;49.142;7.768;2023-05-07T02:00:21;10.47;;;4.90;;
5867;SDS011;2960;49.142;7.768;2023-05-07T02:02:49;10.23;;;4.70;;
5867;SDS011;2960;49.142;7.768;2023-05-07T02:05:17;10.77;;;5.10;;
5867;SDS011;2960;49.142;7.768;2023-05-07T02:07:44;11.77;;;5.10;;
5867;SDS011;2960;49.142;7.768;2023-05-07T02:10:12;10.40;;;4.60;;
5867;SDS011;2960;49.142;7.768;2023-05-07T02:12:40;11.20;;;5.13;;
5867;SDS011;2960;49.142;7.768;2023-05-07T02:15:08;10.37;;;4.97;;
5867;SDS011;2960;49.142;7.768;2023-05-07T02:17:38;10.70;;;4.90;;
5867;SDS011;2960;49.142;7.768;2023-05-07T02:20:24;11.63;;;5.80;;
5867;SDS011;2960;49.142;7.768;2023-05-07T02:22:52;10.57;;;4.63;;
5867;SDS011;2960;49.142;7.768;2023-05-07T02:25:19;10.60;;;4.80;;
5867;SDS011;2960;49.142;7.768;2023-05-07T02:27:48;10.47;;;4.80;;
5867;SDS011;2960;49.142;7.768;2023-05-07T02:30:15;10.73;;;5.10;;
5867;SDS011;2960;49.142;7.768;2023-05-07T02:32:43;10.90;;;5.00;;
5867;SDS011;2960;49.142;7.768;2023-05-07T02:35:10;10.50;;;4.80;;
5867;SDS011;2960;49.142;7.768;2023-05-07T02:37:37;10.37;;;4.80;;
5867;SDS011;2960;49.142;7.768;2023-05-07T02:40:05;10.10;;;4.57;;
5867;SDS011;2960;49.142;7.768;2023-05-07T02:42:33;10.80;;;5.03;;
5867;SDS011;2960;49.142;7.768;2023-05-07T02:45:02;10.50;;;4.97;;
5867;SDS011;2960;49.142;7.768;2023-05-07T02:47:30;10.93;;;4.90;;
5867;SDS011;2960;49.142;7.768;2023-05-07T02:49:57;10.57;;;4.90;;
5867;SDS011;2960;49.142;7.768;2023-05-07T02:52:24;13.30;;;5.00;;
5867;SDS011;2960;49.142;7.768;2023-05-07T02:54:51;10.50;;;4.70;;
5867;SDS011;2960;49.142;7.768;2023-05-07T02:57:18;11.40;;;4.90;;
5867;SDS011;2960;49.142;7.768;2023-05-07T02:59:48;10.53;;;4.67;;
5867;SDS011;2960;49.142;7.768;2023-05-07T03:02:17;11.00;;;4.60;;
5867;SDS011;2960;49.142;7.768;2023-05-07T03:04:44;10.40;;;4.63;;
5867;SDS011;2960;49.142;7.768;2023-05-07T03:07:11;10.50;;;4.80;;
5867;SDS011;2960;49.142;7.768;2023-05-07T03:09:38;14.20;;;4.80;;
5867;SDS011;2960;49.142;7.768;2023-05-07T03:12:07;10.53;;;4.67;;
5867;SDS011;2960;49.142;7.768;2023-05-07T03:14:34;10.33;;;4.53;;
5867;SDS011;2960;49.142;7.768;2023-05-07T03:17:02;12.93;;;4.80;;
5867;SDS011;2960;49.142;7.768;2023-05-07T03:19:30;11.03;;;4.80;;
5867;SDS011;2960;49.142;7.768;2023-05-07T03:21:57;10.43;;;4.77;;
5867;SDS011;2960;49.142;7.768;2023-05-07T03:24:24;11.27;;;5.17;;
5867;SDS011;2960;49.142;7.768;2023-05-07T03:26:51;10.40;;;4.87;;
5867;SDS011;2960;49.142;7.768;2023-05-07T03:29:18;10.40;;;5.00;;
5867;SDS011;2960;49.142;7.768;2023-05-07T03:31:45;10.43;;;4.80;;
5867;SDS011;2960;49.142;7.768;2023-05-07T03:34:13;11.20;;;5.03;;
5867;SDS011;2960;49.142;7.768;2023-05-07T03:36:41;11.13;;;4.80;;
5867;SDS011;2960;49.142;7.768;2023-05-07T03:39:09;11.00;;;5.17;;
5867;SDS011;2960;49.142;7.768;2023-05-07T03:41:36;10.60;;;4.80;;
5867;SDS011;2960;49.142;7.768;2023-05-07T03:44:03;10.20;;;4.50;;
5867;SDS011;2960;49.142;7.768;2023-05-07T03:46:30;10.30;;;4.77;;
5867;SDS011;2960;49.142;7.768;2023-05-07T03:48:57;10.70;;;5.10;;
5867;SDS011;2960;49.142;7.768;2023-05-07T03:51:25;10.67;;;5.07;;
5867;SDS011;2960;49.142;7.768;2023-05-07T03:53:53;11.63;;;4.73;;
5867;SDS011;2960;49.142;7.768;2023-05-07T03:56:22;10.17;;;4.60;;
5867;SDS011;2960;49.142;7.768;2023-05-07T03:58:51;10.40;;;4.73;;
5867;SDS011;2960;49.142;7.768;2023-05-07T04:01:18;10.53;;;4.73;;
5867;SDS011;2960;49.142;7.768;2023-05-07T04:03:45;10.20;;;4.53;;
5867;SDS011;2960;49.142;7.768;2023-05-07T04:06:12;10.80;;;4.53;;
5867;SDS011;2960;49.142;7.768;2023-05-07T04:08:39;10.30;;;4.77;;
5867;SDS011;2960;49.142;7.768;2023-05-07T04:11:08;10.70;;;4.70;;
5867;SDS011;2960;49.142;7.768;2023-05-07T04:13:35;11.00;;;5.10;;
5867;SDS011;2960;49.142;7.768;2023-05-07T04:18:31;10.30;;;4.40;;
5867;SDS011;2960;49.142;7.768;2023-05-07T04:21:01;10.43;;;4.80;;
5867;SDS011;2960;49.142;7.768;2023-05-07T04:23:28;10.47;;;4.90;;
5867;SDS011;2960;49.142;7.768;2023-05-07T04:25:55;10.30;;;4.70;;
5867;SDS011;2960;49.142;7.768;2023-05-07T04:28:24;11.93;;;4.97;;
5867;SDS011;2960;49.142;7.768;2023-05-07T04:30:51;10.20;;;4.77;;
5867;SDS011;2960;49.142;7.768;2023-05-07T04:33:18;10.27;;;4.63;;
5867;SDS011;2960;49.142;7.768;2023-05-07T04:35:46;10.27;;;4.60;;
5867;SDS011;2960;49.142;7.768;2023-05-07T04:38:13;10.10;;;4.27;;
5867;SDS011;2960;49.142;7.768;2023-05-07T04:40:41;10.53;;;5.00;;
5867;SDS011;2960;49.142;7.768;2023-05-07T04:43:08;10.40;;;4.70;;
5867;SDS011;2960;49.142;7.768;2023-05-07T04:45:37;10.20;;;4.53;;
5867;SDS011;2960;49.142;7.768;2023-05-07T04:48:06;10.63;;;4.60;;
5867;SDS011;2960;49.142;7.768;2023-05-07T04:50:33;10.30;;;4.63;;
5867;SDS011;2960;49.142;7.768;2023-05-07T04:53:00;10.00;;;4.30;;
5867;SDS011;2960;49.142;7.768;2023-05-07T04:55:28;10.13;;;4.47;;
5867;SDS011;2960;49.142;7.768;2023-05-07T04:57:55;10.97;;;4.70;;
5867;SDS011;2960;49.142;7.768;2023-05-07T05:00:22;10.60;;;4.70;;
5867;SDS011;2960;49.142;7.768;2023-05-07T05:02:51;10.40;;;4.60;;
5867;SDS011;2960;49.142;7.768;2023-05-07T05:05:18;10.50;;;4.80;;
5867;SDS011;2960;49.142;7.768;2023-05-07T05:07:46;10.13;;;4.40;;
5867;SDS011;2960;49.142;7.768;2023-05-07T05:10:13;9.97;;;4.30;;
5867;SDS011;2960;49.142;7.768;2023-05-07T05:12:41;9.77;;;4.10;;
5867;SDS011;2960;49.142;7.768;2023-05-07T05:15:08;10.30;;;4.67;;
5867;SDS011;2960;49.142;7.768;2023-05-07T05:17:37;10.30;;;4.37;;
5867;SDS011;2960;49.142;7.768;2023-05-07T05:20:06;10.20;;;4.40;;
5867;SDS011;2960;49.142;7.768;2023-05-07T05:22:35;11.30;;;4.77;;
5867;SDS011;2960;49.142;7.768;2023-05-07T05:25:03;10.90;;;4.60;;
5867;SDS011;2960;49.142;7.768;2023-05-07T05:27:30;10.53;;;4.60;;
5867;SDS011;2960;49.142;7.768;2023-05-07T05:29:58;11.30;;;4.50;;
5867;SDS011;2960;49.142;7.768;2023-05-07T05:32:25;10.30;;;4.63;;
5867;SDS011;2960;49.142;7.768;2023-05-07T05:34:52;9.97;;;4.33;;
5867;SDS011;2960;49.142;7.768;2023-05-07T05:37:20;10.33;;;4.57;;
5867;SDS011;2960;49.142;7.768;2023-05-07T05:39:47;10.37;;;4.67;;
5867;SDS011;2960;49.142;7.768;2023-05-07T05:42:14;10.43;;;4.40;;
5867;SDS011;2960;49.142;7.768;2023-05-07T05:44:41;10.70;;;4.50;;
5867;SDS011;2960;49.142;7.768;2023-05-07T05:47:08;10.30;;;4.63;;
5867;SDS011;2960;49.142;7.768;2023-05-07T05:49:39;10.87;;;4.80;;
5867;SDS011;2960;49.142;7.768;2023-05-07T05:52:08;9.97;;;4.27;;
5867;SDS011;2960;49.142;7.768;2023-05-07T05:54:37;10.13;;;4.60;;
5867;SDS011;2960;49.142;7.768;2023-05-07T05:57:07;10.13;;;4.37;;
5867;SDS011;2960;49.142;7.768;2023-05-07T05:59:34;10.83;;;4.80;;
5867;SDS011;2960;49.142;7.768;2023-05-07T06:02:01;10.20;;;4.73;;
5867;SDS011;2960;49.142;7.768;2023-05-07T06:04:29;10.20;;;4.80;;
5867;SDS011;2960;49.142;7.768;2023-05-07T06:06:56;10.60;;;4.70;;
5867;SDS011;2960;49.142;7.768;2023-05-07T06:09:24;10.30;;;4.70;;
5867;SDS011;2960;49.142;7.768;2023-05-07T06:11:52;10.63;;;4.53;;
5867;SDS011;2960;49.142;7.768;2023-05-07T06:14:19;10.30;;;4.40;;
5867;SDS011;2960;49.142;7.768;2023-05-07T06:16:46;10.77;;;4.33;;
5867;SDS011;2960;49.142;7.768;2023-05-07T06:19:13;10.57;;;4.60;;
5867;SDS011;2960;49.142;7.768;2023-05-07T06:21:43;10.40;;;4.40;;
5867;SDS011;2960;49.142;7.768;2023-05-07T06:24:10;10.30;;;4.40;;
5867;SDS011;2960;49.142;7.768;2023-05-07T06:26:37;10.23;;;4.37;;
5867;SDS011;2960;49.142;7.768;2023-05-07T06:29:06;10.90;;;4.50;;
5867;SDS011;2960;49.142;7.768;2023-05-07T06:31:33;10.67;;;4.60;;
5867;SDS011;2960;49.142;7.768;2023-05-07T06:34:00;10.23;;;4.50;;
5867;SDS011;2960;49.142;7.768;2023-05-07T06:36:27;10.60;;;4.77;;
5867;SDS011;2960;49.142;7.768;2023-05-07T06:38:54;10.73;;;4.80;;
5867;SDS011;2960;49.142;7.768;2023-05-07T06:41:21;10.50;;;4.57;;
5867;SDS011;2960;49.142;7.768;2023-05-07T06:43:48;10.83;;;4.90;;
5867;SDS011;2960;49.142;7.768;2023-05-07T06:46:17;10.40;;;4.60;;
5867;SDS011;2960;49.142;7.768;2023-05-07T06:48:44;10.53;;;4.60;;
5867;SDS011;2960;49.142;7.768;2023-05-07T06:51:11;10.40;;;4.90;;
5867;SDS011;2960;49.142;7.768;2023-05-07T06:53:38;10.60;;;4.60;;
5867;SDS011;2960;49.142;7.768;2023-05-07T06:56:05;10.67;;;4.70;;
5867;SDS011;2960;49.142;7.768;2023-05-07T06:58:33;11.00;;;4.97;;
5867;SDS011;2960;49.142;7.768;2023-05-07T07:01:00;10.50;;;4.70;;
5867;SDS011;2960;49.142;7.768;2023-05-07T07:03:28;10.23;;;4.27;;
5867;SDS011;2960;49.142;7.768;2023-05-07T07:05:56;11.80;;;4.80;;
5867;SDS011;2960;49.142;7.768;2023-05-07T07:08:24;10.63;;;4.67;;
5867;SDS011;2960;49.142;7.768;2023-05-07T07:10:51;12.10;;;4.60;;
5867;SDS011;2960;49.142;7.768;2023-05-07T07:13:20;11.20;;;5.00;;
5867;SDS011;2960;49.142;7.768;2023-05-07T07:15:47;10.70;;;5.10;;
5867;SDS011;2960;49.142;7.768;2023-05-07T07:18:14;10.90;;;4.87;;
5867;SDS011;2960;49.142;7.768;2023-05-07T07:20:43;10.80;;;5.17;;
5867;SDS011;2960;49.142;7.768;2023-05-07T07:23:10;11.07;;;4.90;;
5867;SDS011;2960;49.142;7.768;2023-05-07T07:25:38;11.10;;;5.20;;
5867;SDS011;2960;49.142;7.768;2023-05-07T07:28:05;11.17;;;5.57;;
5867;SDS011;2960;49.142;7.768;2023-05-07T07:30:32;11.50;;;5.53;;
5867;SDS011;2960;49.142;7.768;2023-05-07T07:33:01;11.00;;;5.20;;
5867;SDS011;2960;49.142;7.768;2023-05-07T07:35:30;10.93;;;5.13;;
5867;SDS011;2960;49.142;7.768;2023-05-07T07:37:58;11.20;;;5.47;;
5867;SDS011;2960;49.142;7.768;2023-05-07T07:40:26;11.23;;;5.63;;
5867;SDS011;2960;49.142;7.768;2023-05-07T07:42:53;11.60;;;5.83;;
5867;SDS011;2960;49.142;7.768;2023-05-07T07:45:21;11.17;;;5.53;;
5867;SDS011;2960;49.142;7.768;2023-05-07T07:47:48;11.50;;;6.07;;
5867;SDS011;2960;49.142;7.768;2023-05-07T07:50:15;11.50;;;5.43;;
5867;SDS011;2960;49.142;7.768;2023-05-07T07:52:42;12.00;;;5.90;;
5867;SDS011;2960;49.142;7.768;2023-05-07T07:55:11;11.43;;;5.60;;
5867;SDS011;2960;49.142;7.768;2023-05-07T07:57:38;12.20;;;6.10;;
5867;SDS011;2960;49.142;7.768;2023-05-07T08:00:06;11.50;;;5.87;;
5867;SDS011;2960;49.142;7.768;2023-05-07T08:02:35;12.00;;;6.10;;
5867;SDS011;2960;49.142;7.768;2023-05-07T08:05:02;11.47;;;5.90;;
5867;SDS011;2960;49.142;7.768;2023-05-07T08:07:30;11.33;;;5.77;;
5867;SDS011;2960;49.142;7.768;2023-05-07T08:09:57;11.70;;;6.20;;
5867;SDS011;2960;49.142;7.768;2023-05-07T08:12:25;12.07;;;5.97;;
5867;SDS011;2960;49.142;7.768;2023-05-07T08:14:53;11.23;;;5.60;;
5867;SDS011;2960;49.142;7.768;2023-05-07T08:17:20;11.50;;;5.80;;
5867;SDS011;2960;49.142;7.768;2023-05-07T08:19:47;11.23;;;5.60;;
5867;SDS011;2960;49.142;7.768;2023-05-07T08:22:14;11.40;;;5.70;;
5867;SDS011;2960;49.142;7.768;2023-05-07T08:24:43;11.93;;;6.00;;
5867;SDS011;2960;49.142;7.768;2023-05-07T08:27:10;11.70;;;6.00;;
5867;SDS011;2960;49.142;7.768;2023-05-07T08:29:38;11.80;;;6.27;;
5867;SDS011;2960;49.142;7.768;2023-05-07T08:32:05;12.17;;;5.90;;
5867;SDS011;2960;49.142;7.768;2023-05-07T08:34:32;11.87;;;5.93;;
5867;SDS011;2960;49.142;7.768;2023-05-07T08:37:00;11.33;;;5.90;;
5867;SDS011;2960;49.142;7.768;2023-05-07T08:39:27;12.43;;;6.00;;
5867;SDS011;2960;49.142;7.768;2023-05-07T08:41:55;11.60;;;6.20;;
5867;SDS011;2960;49.142;7.768;2023-05-07T08:44:23;11.97;;;5.67;;
5867;SDS011;2960;49.142;7.768;2023-05-07T08:46:55;11.70;;;6.07;;
5867;SDS011;2960;49.142;7.768;2023-05-07T08:49:23;11.77;;;6.10;;
5867;SDS011;2960;49.142;7.768;2023-05-07T08:51:50;12.37;;;6.53;;
5867;SDS011;2960;49.142;7.768;2023-05-07T08:54:17;11.80;;;5.93;;
5867;SDS011;2960;49.142;7.768;2023-05-07T08:56:47;11.53;;;6.10;;
5867;SDS011;2960;49.142;7.768;2023-05-07T08:59:15;11.47;;;6.10;;
5867;SDS011;2960;49.142;7.768;2023-05-07T09:01:42;11.57;;;5.90;;
5867;SDS011;2960;49.142;7.768;2023-05-07T09:04:10;11.47;;;5.97;;
5867;SDS011;2960;49.142;7.768;2023-05-07T09:06:38;11.60;;;5.97;;
5867;SDS011;2960;49.142;7.768;2023-05-07T09:09:07;11.40;;;5.77;;
5867;SDS011;2960;49.142;7.768;2023-05-07T09:11:36;11.60;;;6.00;;
5867;SDS011;2960;49.142;7.768;2023-05-07T09:14:03;11.47;;;6.10;;
5867;SDS011;2960;49.142;7.768;2023-05-07T09:16:30;11.60;;;5.90;;
5867;SDS011;2960;49.142;7.768;2023-05-07T09:18:58;12.30;;;6.30;;
5867;SDS011;2960;49.142;7.768;2023-05-07T09:21:27;12.30;;;6.30;;
5867;SDS011;2960;49.142;7.768;2023-05-07T09:23:55;11.90;;;6.20;;
5867;SDS011;2960;49.142;7.768;2023-05-07T09:26:22;11.50;;;6.10;;
5867;SDS011;2960;49.142;7.768;2023-05-07T09:28:51;11.40;;;5.97;;
5867;SDS011;2960;49.142;7.768;2023-05-07T09:31:20;11.57;;;6.30;;
5867;SDS011;2960;49.142;7.768;2023-05-07T09:33:48;11.67;;;6.37;;
5867;SDS011;2960;49.142;7.768;2023-05-07T09:36:15;12.20;;;6.07;;
5867;SDS011;2960;49.142;7.768;2023-05-07T09:38:44;11.83;;;6.30;;
5867;SDS011;2960;49.142;7.768;2023-05-07T09:41:12;12.00;;;6.33;;
5867;SDS011;2960;49.142;7.768;2023-05-07T09:43:39;11.80;;;6.43;;
5867;SDS011;2960;49.142;7.768;2023-05-07T09:46:07;11.67;;;6.10;;
5867;SDS011;2960;49.142;7.768;2023-05-07T09:48:38;12.63;;;6.20;;
5867;SDS011;2960;49.142;7.768;2023-05-07T09:51:11;11.80;;;6.20;;
5867;SDS011;2960;49.142;7.768;2023-05-07T09:53:48;11.27;;;5.80;;
5867;SDS011;2960;49.142;7.768;2023-05-07T09:56:18;11.70;;;6.20;;
5867;SDS011;2960;49.142;7.768;2023-05-07T09:58:46;11.93;;;6.27;;
5867;SDS011;2960;49.142;7.768;2023-05-07T10:01:15;11.40;;;5.77;;
5867;SDS011;2960;49.142;7.768;2023-05-07T10:03:47;11.63;;;6.03;;
5867;SDS011;2960;49.142;7.768;2023-05-07T10:06:16;11.53;;;6.23;;
5867;SDS011;2960;49.142;7.768;2023-05-07T10:08:43;11.47;;;6.00;;
5867;SDS011;2960;49.142;7.768;2023-05-07T10:11:12;12.20;;;6.20;;
5867;SDS011;2960;49.142;7.768;2023-05-07T10:13:41;11.77;;;6.10;;
5867;SDS011;2960;49.142;7.768;2023-05-07T10:16:09;11.50;;;5.93;;
5867;SDS011;2960;49.142;7.768;2023-05-07T10:18:36;11.80;;;6.30;;
5867;SDS011;2960;49.142;7.768;2023-05-07T10:21:07;11.73;;;6.30;;
5867;SDS011;2960;49.142;7.768;2023-05-07T10:23:38;11.80;;;6.17;;
5867;SDS011;2960;49.142;7.768;2023-05-07T10:26:06;11.70;;;6.30;;
5867;SDS011;2960;49.142;7.768;2023-05-07T10:28:38;11.30;;;5.87;;
5867;SDS011;2960;49.142;7.768;2023-05-07T10:31:23;11.77;;;6.07;;
5867;SDS011;2960;49.142;7.768;2023-05-07T10:34:19;11.80;;;5.90;;
5867;SDS011;2960;49.142;7.768;2023-05-07T10:36:50;11.27;;;5.60;;
5867;SDS011;2960;49.142;7.768;2023-05-07T10:39:19;11.20;;;5.53;;
5867;SDS011;2960;49.142;7.768;2023-05-07T10:41:47;11.80;;;5.93;;
5867;SDS011;2960;49.142;7.768;2023-05-07T10:44:25;12.03;;;6.40;;
5867;SDS011;2960;49.142;7.768;2023-05-07T10:47:03;11.77;;;6.30;;
5867;SDS011;2960;49.142;7.768;2023-05-07T10:49:34;12.10;;;5.50;;
5867;SDS011;2960;49.142;7.768;2023-05-07T10:52:11;14.00;;;6.23;;
5867;SDS011;2960;49.142;7.768;2023-05-07T10:54:41;11.07;;;5.60;;
5867;SDS011;2960;49.142;7.768;2023-05-07T11:00:02;11.33;;;5.70;;
5867;SDS011;2960;49.142;7.768;2023-05-07T11:05:32;11.53;;;6.10;;
5867;SDS011;2960;49.142;7.768;2023-05-07T11:08:03;11.23;;;5.90;;
5867;SDS011;2960;49.142;7.768;2023-05-07T11:13:18;11.47;;;5.80;;
5867;SDS011;2960;49.142;7.768;2023-05-07T11:16:17;11.63;;;5.80;;
5867;SDS011;2960;49.142;7.768;2023-05-07T11:18:46;11.43;;;6.03;;
5867;SDS011;2960;49.142;7.768;2023-05-07T11:24:05;11.37;;;5.87;;
5867;SDS011;2960;49.142;7.768;2023-05-07T11:26:46;11.83;;;6.10;;
5867;SDS011;2960;49.142;7.768;2023-05-07T11:29:15;11.80;;;6.50;;
5867;SDS011;2960;49.142;7.768;2023-05-07T11:31:49;11.93;;;6.40;;
5867;SDS011;2960;49.142;7.768;2023-05-07T11:34:20;11.43;;;6.10;;
5867;SDS011;2960;49.142;7.768;2023-05-07T11:36:49;11.43;;;5.90;;
5867;SDS011;2960;49.142;7.768;2023-05-07T11:39:23;11.53;;;5.90;;
5867;SDS011;2960;49.142;7.768;2023-05-07T11:41:54;11.67;;;6.10;;
5867;SDS011;2960;49.142;7.768;2023-05-07T11:44:21;11.47;;;6.10;;
5867;SDS011;2960;49.142;7.768;2023-05-07T11:46:50;11.03;;;5.30;;
5867;SDS011;2960;49.142;7.768;2023-05-07T11:49:17;12.67;;;6.13;;
5867;SDS011;2960;49.142;7.768;2023-05-07T11:51:45;11.70;;;6.20;;
5867;SDS011;2960;49.142;7.768;2023-05-07T11:54:15;11.37;;;5.87;;
5867;SDS011;2960;49.142;7.768;2023-05-07T11:56:43;11.27;;;5.83;;
5867;SDS011;2960;49.142;7.768;2023-05-07T11:59:17;11.70;;;6.30;;
5867;SDS011;2960;49.142;7.768;2023-05-07T12:01:45;11.97;;;6.10;;
5867;SDS011;2960;49.142;7.768;2023-05-07T12:04:16;11.60;;;6.03;;
5867;SDS011;2960;49.142;7.768;2023-05-07T12:06:46;11.57;;;5.80;;
5867;SDS011;2960;49.142;7.768;2023-05-07T12:09:15;11.77;;;5.90;;
5867;SDS011;2960;49.142;7.768;2023-05-07T12:11:45;11.67;;;5.60;;
5867;SDS011;2960;49.142;7.768;2023-05-07T12:14:12;11.60;;;5.57;;
5867;SDS011;2960;49.142;7.768;2023-05-07T12:16:41;11.67;;;5.80;;
5867;SDS011;2960;49.142;7.768;2023-05-07T12:19:08;11.50;;;5.83;;
5867;SDS011;2960;49.142;7.768;2023-05-07T12:21:38;11.60;;;6.20;;
5867;SDS011;2960;49.142;7.768;2023-05-07T12:24:07;11.80;;;5.93;;
5867;SDS011;2960;49.142;7.768;2023-05-07T12:26:37;12.30;;;5.93;;
5867;SDS011;2960;49.142;7.768;2023-05-07T12:29:05;11.87;;;5.90;;
5867;SDS011;2960;49.142;7.768;2023-05-07T12:31:33;11.47;;;5.67;;
5867;SDS011;2960;49.142;7.768;2023-05-07T12:34:03;11.57;;;6.00;;
5867;SDS011;2960;49.142;7.768;2023-05-07T12:36:36;11.53;;;6.00;;
5867;SDS011;2960;49.142;7.768;2023-05-07T12:39:05;12.93;;;5.77;;
5867;SDS011;2960;49.142;7.768;2023-05-07T12:41:35;12.00;;;6.53;;
5867;SDS011;2960;49.142;7.768;2023-05-07T12:44:19;11.83;;;6.20;;
5867;SDS011;2960;49.142;7.768;2023-05-07T12:46:49;12.00;;;6.30;;
5867;SDS011;2960;49.142;7.768;2023-05-07T12:49:17;12.97;;;6.37;;
5867;SDS011;2960;49.142;7.768;2023-05-07T12:51:45;11.80;;;6.00;;
5867;SDS011;2960;49.142;7.768;2023-05-07T12:54:13;11.90;;;6.00;;
5867;SDS011;2960;49.142;7.768;2023-05-07T12:56:59;11.60;;;6.37;;
5867;SDS011;2960;49.142;7.768;2023-05-07T12:59:32;12.97;;;5.97;;
5867;SDS011;2960;49.142;7.768;2023-05-07T13:02:00;11.60;;;5.87;;
5867;SDS011;2960;49.142;7.768;2023-05-07T13:04:27;11.20;;;5.60;;
5867;SDS011;2960;49.142;7.768;2023-05-07T13:06:55;11.80;;;5.60;;
5867;SDS011;2960;49.142;7.768;2023-05-07T13:09:23;11.80;;;6.43;;
5867;SDS011;2960;49.142;7.768;2023-05-07T13:11:50;12.53;;;6.90;;
5867;SDS011;2960;49.142;7.768;2023-05-07T13:14:17;12.40;;;6.60;;
5867;SDS011;2960;49.142;7.768;2023-05-07T13:16:46;12.60;;;7.20;;
5867;SDS011;2960;49.142;7.768;2023-05-07T13:19:13;12.47;;;7.17;;
5867;SDS011;2960;49.142;7.768;2023-05-07T13:21:42;12.10;;;6.53;;
5867;SDS011;2960;49.142;7.768;2023-05-07T13:24:11;12.00;;;6.30;;
5867;SDS011;2960;49.142;7.768;2023-05-07T13:26:39;12.33;;;6.10;;
5867;SDS011;2960;49.142;7.768;2023-05-07T13:29:06;12.37;;;6.40;;
5867;SDS011;2960;49.142;7.768;2023-05-07T13:31:37;12.03;;;6.30;;
5867;SDS011;2960;49.142;7.768;2023-05-07T13:34:07;11.80;;;6.40;;
5867;SDS011;2960;49.142;7.768;2023-05-07T13:36:34;11.63;;;6.47;;
5867;SDS011;2960;49.142;7.768;2023-05-07T13:39:02;12.10;;;6.23;;
5867;SDS011;2960;49.142;7.768;2023-05-07T13:41:30;12.27;;;6.70;;
5867;SDS011;2960;49.142;7.768;2023-05-07T13:43:57;12.20;;;6.40;;
5867;SDS011;2960;49.142;7.768;2023-05-07T13:46:25;12.10;;;6.47;;
5867;SDS011;2960;49.142;7.768;2023-05-07T13:48:52;12.27;;;6.30;;
5867;SDS011;2960;49.142;7.768;2023-05-07T13:51:19;11.67;;;6.40;;
5867;SDS011;2960;49.142;7.768;2023-05-07T13:53:47;12.03;;;6.50;;
5867;SDS011;2960;49.142;7.768;2023-05-07T13:56:14;11.70;;;6.30;;
5867;SDS011;2960;49.142;7.768;2023-05-07T13:58:42;11.60;;;6.10;;
5867;SDS011;2960;49.142;7.768;2023-05-07T14:01:09;12.53;;;6.13;;
5867;SDS011;2960;49.142;7.768;2023-05-07T14:03:37;12.77;;;6.13;;
5867;SDS011;2960;49.142;7.768;2023-05-07T14:06:04;11.90;;;6.30;;
5867;SDS011;2960;49.142;7.768;2023-05-07T14:08:32;12.20;;;5.83;;
5867;SDS011;2960;49.142;7.768;2023-05-07T14:10:59;13.00;;;6.40;;
5867;SDS011;2960;49.142;7.768;2023-05-07T14:13:26;12.20;;;6.30;;
5867;SDS011;2960;49.142;7.768;2023-05-07T14:15:56;11.50;;;6.07;;
5867;SDS011;2960;49.142;7.768;2023-05-07T14:18:24;11.80;;;5.90;;
5867;SDS011;2960;49.142;7.768;2023-05-07T14:20:51;11.70;;;6.13;;
5867;SDS011;2960;49.142;7.768;2023-05-07T14:23:18;11.90;;;6.40;;
5867;SDS011;2960;49.142;7.768;2023-05-07T14:25:50;12.27;;;6.40;;
5867;SDS011;2960;49.142;7.768;2023-05-07T14:28:17;12.50;;;6.37;;
5867;SDS011;2960;49.142;7.768;2023-05-07T14:30:45;12.80;;;6.60;;
5867;SDS011;2960;49.142;7.768;2023-05-07T14:33:14;11.87;;;6.33;;
5867;SDS011;2960;49.142;7.768;2023-05-07T14:35:41;13.60;;;6.40;;
5867;SDS011;2960;49.142;7.768;2023-05-07T14:38:13;12.80;;;6.53;;
5867;SDS011;2960;49.142;7.768;2023-05-07T14:40:40;13.03;;;6.70;;
5867;SDS011;2960;49.142;7.768;2023-05-07T14:43:08;11.87;;;6.40;;
5867;SDS011;2960;49.142;7.768;2023-05-07T14:45:35;13.40;;;6.33;;
5867;SDS011;2960;49.142;7.768;2023-05-07T14:48:02;12.10;;;6.57;;
5867;SDS011;2960;49.142;7.768;2023-05-07T14:50:31;11.97;;;6.03;;
5867;SDS011;2960;49.142;7.768;2023-05-07T14:52:59;12.40;;;6.87;;
5867;SDS011;2960;49.142;7.768;2023-05-07T14:55:26;13.10;;;6.37;;
5867;SDS011;2960;49.142;7.768;2023-05-07T14:57:53;12.00;;;6.43;;
5867;SDS011;2960;49.142;7.768;2023-05-07T15:00:20;11.90;;;6.00;;
5867;SDS011;2960;49.142;7.768;2023-05-07T15:02:47;12.17;;;6.50;;
5867;SDS011;2960;49.142;7.768;2023-05-07T15:05:14;12.13;;;6.20;;
5867;SDS011;2960;49.142;7.768;2023-05-07T15:07:44;12.97;;;5.90;;
5867;SDS011;2960;49.142;7.768;2023-05-07T15:10:12;11.67;;;6.20;;
5867;SDS011;2960;49.142;7.768;2023-05-07T15:12:39;11.70;;;5.93;;
5867;SDS011;2960;49.142;7.768;2023-05-07T15:15:06;11.80;;;6.30;;
5867;SDS011;2960;49.142;7.768;2023-05-07T15:17:35;11.80;;;6.20;;
5867;SDS011;2960;49.142;7.768;2023-05-07T15:20:02;11.87;;;6.37;;
5867;SDS011;2960;49.142;7.768;2023-05-07T15:22:31;12.00;;;6.27;;
5867;SDS011;2960;49.142;7.768;2023-05-07T15:24:59;11.80;;;5.90;;